Time;durP1;ratioP1;P1;durP2;ratioP2;P2;SDS_P1;SDS_P2;PMS_P1;PMS_P2;Temp;Humidity;BMP_temperature;BMP_pressure;BME280_temperature;BME280_humidity;BME280_pressure;Samples;Min_cycle;Max_cycle;Signal;HPM_P1;HPM_P2
2024/03/01 00:00:21;;;;;;;;;;;;;;;4.08;100.00;95833.09;30001;982;1877;-55
2024/03/01 00:00:51;;;;;;;;;;;;;;;4.11;100.00;95839.78;30001;983;1881;-66
2024/03/01 00:01:22;;;;;;;;;;;;;;;4.10;100.00;95828.25;30001;987;1876;-56
2024/03/01 00:01:53;;;;;;;;;;;;;;;4.13;100.00;95832.28;30001;983;1868;-58
2024/03/01 00:02:24;;;;;;;;;;;;;;;4.14;100.00;95839.25;30001;983;1868;-55
2024/03/01 00:02:55;;;;;;;;;;;;;;;4.15;100.00;95835.47;30001;983;1881;-56
2024/03/01 00:03:27;;;;;;;;;;;;;;;4.16;100.00;95826.34;30001;964;1795;-55
2024/03/01 00:03:57;;;;;;;;;;;;;;;4.17;100.00;95827.91;30001;983;1881;-56
2024/03/01 00:04:28;;;;;;;;;;;;;;;4.18;100.00;95829.53;30001;983;1864;-56
2024/03/01 00:04:59;;;;;;;;;;;;;;;4.18;100.00;95830.31;30001;982;1872;-56
2024/03/01 00:05:30;;;;;;;;;;;;;;;4.20;100.00;95832.75;30001;982;1877;-71
2024/03/01 00:06:01;;;;;;;;;;;;;;;4.21;100.00;95823.59;30001;982;1881;-69
2024/03/01 00:06:32;;;;;;;;;;;;;;;4.22;100.00;95830.56;30001;982;1877;-55
2024/03/01 00:07:04;;;;;;;;;;;;;;;4.23;100.00;95832.19;30001;982;1881;-56
2024/03/01 00:07:35;;;;;;;;;;;;;;;4.24;100.00;95834.59;30001;982;1877;-55
2024/03/01 00:08:06;;;;;;;;;;;;;;;4.24;100.00;95839.16;30001;982;1882;-56
2024/03/01 00:08:37;;;;;;;;;;;;;;;4.24;100.00;95828.41;30001;983;1876;-56
2024/03/01 00:09:08;;;;;;;;;;;;;;;4.24;100.00;95828.41;30001;983;1881;-69
2024/03/01 00:09:40;;;;;;;;;;;;;;;4.24;100.00;95828.41;30001;983;1863;-56
2024/03/01 00:10:11;;;;;;;;;;;;;;;4.26;100.00;95837.00;30001;983;1872;-56
2024/03/01 00:10:42;;;;;;;;;;;;;;;4.25;100.00;95830.03;30001;970;1900;-56
2024/03/01 00:11:14;;;;;;;;;;;;;;;4.23;100.00;95832.97;30001;983;1868;-56
2024/03/01 00:11:45;;;;;;;;;;;;;;;4.24;100.00;95828.41;30001;983;1868;-56
2024/03/01 00:12:16;;;;;;;;;;;;;;;4.24;100.00;95834.59;30001;983;1881;-56
2024/03/01 00:12:47;;;;;;;;;;;;;;;4.25;100.00;95835.41;30001;982;1877;-56
2024/03/01 00:13:18;;;;;;;;;;;;;;;4.25;100.00;95835.41;30001;982;1881;-56
2024/03/01 00:13:48;;;;;;;;;;;;;;;4.25;100.00;95843.44;30001;982;1877;-54
2024/03/01 00:14:19;;;;;;;;;;;;;;;4.25;100.00;95844.25;30001;982;1881;-56
2024/03/01 00:14:50;;;;;;;;;;;;;;;4.26;100.00;95847.75;30001;982;1877;-56
2024/03/01 00:15:23;;;;;;;;;;;;;;;4.26;100.00;95851.22;30001;982;1881;-56
2024/03/01 00:15:55;;;;;;;;;;;;;;;4.26;100.00;95853.13;30001;983;1876;-56
2024/03/01 00:16:26;;;;;;;;;;;;;;;4.26;100.00;95845.84;30001;983;1867;-56
2024/03/01 00:16:57;;;;;;;;;;;;;;;4.27;100.00;95847.47;30001;983;1868;-56
2024/03/01 00:17:32;;;;;;;;;;;;;;;4.28;100.00;95841.00;30001;983;1881;-56
2024/03/01 00:18:03;;;;;;;;;;;;;;;4.30;100.00;95840.75;30001;983;1876;-55
2024/03/01 00:18:35;;;;;;;;;;;;;;;4.32;100.00;95843.94;30001;983;1881;-56
2024/03/01 00:19:05;;;;;;;;;;;;;;;4.34;100.00;95839.09;30001;983;1877;-55
2024/03/01 00:19:36;;;;;;;;;;;;;;;4.34;100.00;95839.09;30001;986;1881;-56
2024/03/01 00:20:08;;;;;;;;;;;;;;;4.35;100.00;95840.72;30001;982;1877;-56
2024/03/01 00:20:39;;;;;;;;;;;;;;;4.37;100.00;95843.91;30001;982;1881;-69
2024/03/01 00:21:15;;;;;;;;;;;;;;;4.36;100.00;95842.31;30001;982;1877;-58
2024/03/01 00:21:46;;;;;;;;;;;;;;;4.37;100.00;95838.56;30001;982;1868;-56
2024/03/01 00:22:18;;;;;;;;;;;;;;;4.39;100.00;95847.13;30001;975;1886;-56
2024/03/01 00:22:52;;;;;;;;;;;;;;;4.38;100.00;95849.00;30001;982;1868;-56
2024/03/01 00:23:23;;;;;;;;;;;;;;;4.40;100.00;95843.38;30001;983;1867;-55
2024/03/01 00:23:54;;;;;;;;;;;;;;;4.39;100.00;95849.81;30001;983;1881;-55
2024/03/01 00:24:25;;;;;;;;;;;;;;;4.39;100.00;95852.50;30001;983;1876;-68
2024/03/01 00:24:59;;;;;;;;;;;;;;;4.40;100.00;95847.94;30001;983;1881;-56
2024/03/01 00:25:30;;;;;;;;;;;;;;;4.38;100.00;95853.59;30001;983;1876;-55
2024/03/01 00:26:01;;;;;;;;;;;;;;;4.38;100.00;95849.00;30001;983;1881;-55
2024/03/01 00:26:33;;;;;;;;;;;;;;;4.39;100.00;95849.81;30001;983;1877;-55
2024/03/01 00:27:04;;;;;;;;;;;;;;;4.38;100.00;95854.37;30001;983;1881;-55
2024/03/01 00:27:35;;;;;;;;;;;;;;;4.38;100.00;95851.69;30001;982;1877;-55
2024/03/01 00:28:06;;;;;;;;;;;;;;;4.38;100.00;95854.37;30001;982;1868;-56
2024/03/01 00:28:37;;;;;;;;;;;;;;;4.38;100.00;95858.94;30001;982;1868;-55
2024/03/01 00:29:10;;;;;;;;;;;;;;;4.39;100.00;95857.88;30001;982;1882;-55
2024/03/01 00:29:41;;;;;;;;;;;;;;;4.39;100.00;95857.88;30001;982;1877;-56
2024/03/01 00:30:12;;;;;;;;;;;;;;;4.38;100.00;95856.28;30001;982;1881;-55
2024/03/01 00:30:43;;;;;;;;;;;;;;;4.40;100.00;95854.09;30001;982;1877;-55
2024/03/01 00:31:14;;;;;;;;;;;;;;;4.42;100.00;95857.31;30001;983;1881;-56
2024/03/01 00:31:45;;;;;;;;;;;;;;;4.44;100.00;95855.16;30001;983;1876;-55
2024/03/01 00:32:16;;;;;;;;;;;;;;;4.44;100.00;95855.16;30001;983;1881;-55
2024/03/01 00:32:47;;;;;;;;;;;;;;;4.45;100.00;95856.75;30001;983;1876;-55
2024/03/01 00:33:18;;;;;;;;;;;;;;;4.46;100.00;95852.19;30001;983;1868;-70
2024/03/01 00:33:49;;;;;;;;;;;;;;;4.46;100.00;95857.56;30001;983;1868;-55
2024/03/01 00:34:19;;;;;;;;;;;;;;;4.44;100.00;95855.16;30001;983;1881;-56
2024/03/01 00:34:50;;;;;;;;;;;;;;;4.45;100.00;95854.06;30001;983;1877;-56
2024/03/01 00:35:22;;;;;;;;;;;;;;;4.45;100.00;95856.75;30001;982;1881;-55
2024/03/01 00:35:56;;;;;;;;;;;;;;;4.45;100.00;95855.97;30001;982;1877;-56
2024/03/01 00:36:27;;;;;;;;;;;;;;;4.44;100.00;95849.78;30001;982;1882;-66
2024/03/01 00:36:59;;;;;;;;;;;;;;;4.42;100.00;95849.25;30001;982;1877;-55
2024/03/01 00:37:30;;;;;;;;;;;;;;;4.42;100.00;95851.94;30001;982;1882;-70
2024/03/01 00:38:01;;;;;;;;;;;;;;;4.42;100.00;95851.94;30001;983;1876;-56
2024/03/01 00:38:32;;;;;;;;;;;;;;;4.41;100.00;95850.34;30001;983;1868;-56
2024/03/01 00:39:03;;;;;;;;;;;;;;;4.41;100.00;95850.34;30001;983;1868;-55
2024/03/01 00:39:36;;;;;;;;;;;;;;;4.40;100.00;95843.38;30001;983;1881;-55
2024/03/01 00:40:07;;;;;;;;;;;;;;;4.41;100.00;95844.97;30001;983;1877;-55
2024/03/01 00:40:38;;;;;;;;;;;;;;;4.40;100.00;95848.75;30001;983;1881;-56
2024/03/01 00:41:10;;;;;;;;;;;;;;;4.40;100.00;95843.38;30001;983;1877;-55
2024/03/01 00:41:41;;;;;;;;;;;;;;;4.40;100.00;95848.75;30001;983;1881;-55
2024/03/01 00:42:11;;;;;;;;;;;;;;;4.40;100.00;95842.56;30001;983;1877;-56
2024/03/01 00:42:42;;;;;;;;;;;;;;;4.40;100.00;95842.56;30001;982;1881;-56
2024/03/01 00:43:15;;;;;;;;;;;;;;;4.40;100.00;95843.38;30001;982;1877;-54
2024/03/01 00:43:46;;;;;;;;;;;;;;;4.40;100.00;95840.69;30001;982;1868;-56
2024/03/01 00:44:17;;;;;;;;;;;;;;;4.40;100.00;95848.75;30001;982;1868;-55
2024/03/01 00:44:47;;;;;;;;;;;;;;;4.39;100.00;95855.19;30001;982;1882;-54
2024/03/01 00:45:18;;;;;;;;;;;;;;;4.39;100.00;95847.13;30001;983;1876;-55
2024/03/01 00:45:49;;;;;;;;;;;;;;;4.38;100.00;95849.00;30001;983;1881;-56
2024/03/01 00:46:20;;;;;;;;;;;;;;;4.37;100.00;95841.22;30001;983;1877;-56
2024/03/01 00:46:51;;;;;;;;;;;;;;;4.38;100.00;95848.22;30001;983;1881;-56
2024/03/01 00:47:22;;;;;;;;;;;;;;;4.36;100.00;95848.50;30001;983;1877;-56
2024/03/01 00:47:53;;;;;;;;;;;;;;;4.35;100.00;95846.09;30001;983;1881;-56
2024/03/01 00:48:25;;;;;;;;;;;;;;;4.34;100.00;95850.66;30001;983;1877;-55
2024/03/01 00:48:56;;;;;;;;;;;;;;;4.35;100.00;95846.09;30001;983;1868;-56
2024/03/01 00:49:27;;;;;;;;;;;;;;;4.34;100.00;95844.47;30001;983;1868;-55
2024/03/01 00:49:58;;;;;;;;;;;;;;;4.33;100.00;95842.88;30001;983;1881;-55
2024/03/01 00:50:29;;;;;;;;;;;;;;;4.34;100.00;95847.16;30001;982;1877;-55
2024/03/01 00:51:02;;;;;;;;;;;;;;;4.33;100.00;95840.19;30001;982;1881;-55
2024/03/01 00:51:33;;;;;;;;;;;;;;;4.31;100.00;95843.16;30001;982;1877;-55
2024/03/01 00:52:04;;;;;;;;;;;;;;;4.30;100.00;95849.59;30001;982;1882;-55
2024/03/01 00:52:35;;;;;;;;;;;;;;;4.30;100.00;95846.09;30001;982;1877;-55
2024/03/01 00:53:08;;;;;;;;;;;;;;;4.31;100.00;95853.09;30001;983;1881;-55
2024/03/01 00:53:42;;;;;;;;;;;;;;;4.30;100.00;95846.09;30001;983;1877;-56
2024/03/01 00:54:13;;;;;;;;;;;;;;;4.30;100.00;95848.78;30001;983;1868;-56
2024/03/01 00:54:43;;;;;;;;;;;;;;;4.30;100.00;95843.44;30001;983;1868;-56
2024/03/01 00:55:15;;;;;;;;;;;;;;;4.30;100.00;95846.09;30001;983;1881;-56
2024/03/01 00:55:46;;;;;;;;;;;;;;;4.29;100.00;95841.81;30001;983;1877;-56
2024/03/01 00:56:16;;;;;;;;;;;;;;;4.29;100.00;95844.50;30001;983;1881;-56
2024/03/01 00:56:48;;;;;;;;;;;;;;;4.28;100.00;95845.59;30001;970;1897;-56
2024/03/01 00:57:19;;;;;;;;;;;;;;;4.27;100.00;95839.41;30001;983;1881;-56
2024/03/01 00:57:50;;;;;;;;;;;;;;;4.28;100.00;95840.22;30001;982;1877;-55
2024/03/01 00:58:21;;;;;;;;;;;;;;;4.26;100.00;95837.00;30001;982;1881;-56
2024/03/01 00:58:52;;;;;;;;;;;;;;;4.28;100.00;95841.00;30001;982;1877;-56
2024/03/01 00:59:23;;;;;;;;;;;;;;;4.27;100.00;95836.72;30001;982;1868;-56
2024/03/01 00:59:54;;;;;;;;;;;;;;;4.28;100.00;95841.00;30001;982;1869;-55
2024/03/01 01:00:25;;;;;;;;;;;;;;;4.29;100.00;95841.81;30001;983;1881;-55
2024/03/01 01:00:57;;;;;;;;;;;;;;;4.29;100.00;95836.44;30001;983;1876;-56
2024/03/01 01:01:28;;;;;;;;;;;;;;;4.29;100.00;95837.25;30001;983;1881;-56
2024/03/01 01:01:59;;;;;;;;;;;;;;;4.29;100.00;95839.13;30001;983;1780;-56
2024/03/01 01:02:30;;;;;;;;;;;;;;;4.29;100.00;95841.81;30001;983;1881;-55
2024/03/01 01:03:00;;;;;;;;;;;;;;;4.30;100.00;95843.44;30001;983;1877;-55
2024/03/01 01:03:31;;;;;;;;;;;;;;;4.28;100.00;95832.97;30001;983;1881;-70
2024/03/01 01:04:03;;;;;;;;;;;;;;;4.28;100.00;95840.22;30001;983;1877;-56
2024/03/01 01:04:35;;;;;;;;;;;;;;;4.27;100.00;95839.41;30001;983;1868;-56
2024/03/01 01:05:07;;;;;;;;;;;;;;;4.26;100.00;95839.69;30001;983;1868;-56
2024/03/01 01:05:40;;;;;;;;;;;;;;;4.28;100.00;95848.28;30001;982;1881;-56
2024/03/01 01:06:11;;;;;;;;;;;;;;;4.27;100.00;95844.78;30001;982;1877;-68
2024/03/01 01:06:42;;;;;;;;;;;;;;;4.26;100.00;95842.38;30001;982;1881;-56
2024/03/01 01:07:13;;;;;;;;;;;;;;;4.27;100.00;95843.97;30001;982;1877;-55
2024/03/01 01:07:44;;;;;;;;;;;;;;;4.28;100.00;95845.59;30001;970;1903;-56
2024/03/01 01:08:15;;;;;;;;;;;;;;;4.29;100.00;95845.31;30001;983;1876;-56
2024/03/01 01:08:46;;;;;;;;;;;;;;;4.30;100.00;95844.22;30001;983;1881;-57
2024/03/01 01:09:17;;;;;;;;;;;;;;;4.31;100.00;95839.66;30001;983;1877;-56
2024/03/01 01:09:48;;;;;;;;;;;;;;;4.32;100.00;95849.31;30001;983;1868;-56
2024/03/01 01:10:20;;;;;;;;;;;;;;;4.32;100.00;95850.13;30001;983;1868;-56
2024/03/01 01:10:54;;;;;;;;;;;;;;;4.33;100.00;95845.56;30001;983;1881;-56
2024/03/01 01:11:25;;;;;;;;;;;;;;;4.33;100.00;95849.03;30001;983;1877;-57
2024/03/01 01:11:56;;;;;;;;;;;;;;;4.35;100.00;95840.72;30001;983;1881;-56
2024/03/01 01:12:27;;;;;;;;;;;;;;;4.37;100.00;95843.91;30001;982;1877;-56
2024/03/01 01:12:58;;;;;;;;;;;;;;;4.36;100.00;95842.31;30001;982;1881;-56
2024/03/01 01:13:29;;;;;;;;;;;;;;;4.36;100.00;95839.63;30001;982;1877;-56
2024/03/01 01:14:00;;;;;;;;;;;;;;;4.35;100.00;95836.16;30001;982;1882;-56
2024/03/01 01:14:31;;;;;;;;;;;;;;;4.34;100.00;95839.09;30001;982;1877;-57
2024/03/01 01:15:03;;;;;;;;;;;;;;;4.32;100.00;95834.00;30001;207;1868;-55
2024/03/01 01:15:34;;;;;;;;;;;;;;;4.30;100.00;95830.81;30001;983;1867;-55
2024/03/01 01:16:05;;;;;;;;;;;;;;;4.29;100.00;95831.06;30001;983;1881;-56
2024/03/01 01:16:36;;;;;;;;;;;;;;;4.29;100.00;95828.38;30001;983;1877;-56
2024/03/01 01:17:11;;;;;;;;;;;;;;;4.28;100.00;95835.66;30001;983;1881;-55
2024/03/01 01:17:41;;;;;;;;;;;;;;;4.28;100.00;95830.28;30001;983;1877;-56
2024/03/01 01:18:16;;;;;;;;;;;;;;;4.29;100.00;95833.75;30001;983;1881;-56
2024/03/01 01:18:47;;;;;;;;;;;;;;;4.28;100.00;95829.47;30001;983;1877;-56
2024/03/01 01:19:18;;;;;;;;;;;;;;;4.27;100.00;95833.22;30001;983;1881;-56
2024/03/01 01:19:50;;;;;;;;;;;;;;;4.26;100.00;95831.63;30001;982;1877;-57
2024/03/01 01:20:24;;;;;;;;;;;;;;;4.24;100.00;95829.22;30001;982;1868;-56
2024/03/01 01:20:55;;;;;;;;;;;;;;;4.25;100.00;95835.41;30001;982;1868;-57
2024/03/01 01:21:27;;;;;;;;;;;;;;;4.24;100.00;95831.09;30001;982;1882;-56
2024/03/01 01:21:57;;;;;;;;;;;;;;;4.23;100.00;95832.19;30001;982;1790;-55
2024/03/01 01:22:28;;;;;;;;;;;;;;;4.22;100.00;95830.56;30001;982;1881;-56
2024/03/01 01:23:00;;;;;;;;;;;;;;;4.21;100.00;95834.34;30001;983;1876;-56
2024/03/01 01:23:30;;;;;;;;;;;;;;;4.19;100.00;95841.88;30001;983;1881;-56
2024/03/01 01:24:01;;;;;;;;;;;;;;;4.18;100.00;95840.25;30001;983;1877;-56
2024/03/01 01:24:33;;;;;;;;;;;;;;;4.17;100.00;95838.66;30001;983;1881;-56
2024/03/01 01:25:07;;;;;;;;;;;;;;;4.15;100.00;95835.47;30001;983;1877;-56
2024/03/01 01:25:41;;;;;;;;;;;;;;;4.14;100.00;95825.81;30001;964;1887;-56
2024/03/01 01:26:12;;;;;;;;;;;;;;;4.16;100.00;95832.47;30001;983;1868;-56
2024/03/01 01:26:43;;;;;;;;;;;;;;;4.17;100.00;95839.47;30001;983;1881;-56
2024/03/01 01:27:14;;;;;;;;;;;;;;;4.16;100.00;95837.09;30001;982;1877;-56
2024/03/01 01:27:45;;;;;;;;;;;;;;;4.14;100.00;95840.03;30001;982;1881;-56
2024/03/01 01:28:16;;;;;;;;;;;;;;;4.15;100.00;95848.91;30001;982;1877;-56
2024/03/01 01:28:51;;;;;;;;;;;;;;;4.14;100.00;95839.25;30001;962;1902;-57
2024/03/01 01:29:22;;;;;;;;;;;;;;;4.13;100.00;95854.53;30001;982;1877;-56
2024/03/01 01:29:53;;;;;;;;;;;;;;;4.13;100.00;95848.38;30001;982;1882;-56
2024/03/01 01:30:24;;;;;;;;;;;;;;;4.12;100.00;95846.78;30001;982;1877;-56
2024/03/01 01:30:55;;;;;;;;;;;;;;;4.11;100.00;95843.28;30001;983;1868;-56
2024/03/01 01:31:26;;;;;;;;;;;;;;;4.10;100.00;95844.34;30001;983;1868;-55
2024/03/01 01:31:58;;;;;;;;;;;;;;;4.10;100.00;95832.81;30001;983;1881;-56
2024/03/01 01:32:29;;;;;;;;;;;;;;;4.10;100.00;95832.81;30001;983;1877;-69
2024/03/01 01:33:00;;;;;;;;;;;;;;;4.11;100.00;95829.06;30001;983;1881;-56
2024/03/01 01:33:30;;;;;;;;;;;;;;;4.12;100.00;95836.03;30001;971;1897;-68
2024/03/01 01:34:01;;;;;;;;;;;;;;;4.12;100.00;95836.03;30001;983;1881;-68
2024/03/01 01:34:32;;;;;;;;;;;;;;;4.12;100.00;95833.34;30001;983;1877;-56
2024/03/01 01:35:04;;;;;;;;;;;;;;;4.14;100.00;95826.63;30001;982;1881;-56
2024/03/01 01:35:35;;;;;;;;;;;;;;;4.15;100.00;95830.13;30001;986;1868;-56
2024/03/01 01:36:07;;;;;;;;;;;;;;;4.15;100.00;95824.75;30001;982;1868;-56
2024/03/01 01:36:37;;;;;;;;;;;;;;;4.15;100.00;95827.44;30001;982;1869;-55
2024/03/01 01:37:08;;;;;;;;;;;;;;;4.16;100.00;95827.13;30001;982;1881;-56
2024/03/01 01:37:39;;;;;;;;;;;;;;;4.16;100.00;95826.34;30001;982;1877;-55
2024/03/01 01:38:10;;;;;;;;;;;;;;;4.16;100.00;95826.34;30001;983;1881;-56
2024/03/01 01:38:41;;;;;;;;;;;;;;;4.16;100.00;95826.34;30001;983;1877;-56
2024/03/01 01:39:12;;;;;;;;;;;;;;;4.16;100.00;95827.13;30001;983;1881;-56
2024/03/01 01:39:43;;;;;;;;;;;;;;;4.18;100.00;95824.97;30001;983;1876;-69
2024/03/01 01:40:14;;;;;;;;;;;;;;;4.19;100.00;95831.13;30001;983;1881;-57
2024/03/01 01:40:46;;;;;;;;;;;;;;;4.19;100.00;95825.75;30001;983;1877;-56
2024/03/01 01:41:17;;;;;;;;;;;;;;;4.20;100.00;95816.63;30001;983;1868;-55
2024/03/01 01:41:48;;;;;;;;;;;;;;;4.21;100.00;95823.59;30001;966;1892;-68
2024/03/01 01:42:19;;;;;;;;;;;;;;;4.20;100.00;95828.16;30001;982;1881;-56
2024/03/01 01:42:51;;;;;;;;;;;;;;;4.20;100.00;95822.00;30001;982;1877;-56
2024/03/01 01:43:22;;;;;;;;;;;;;;;4.19;100.00;95823.06;30001;982;1882;-56
2024/03/01 01:43:53;;;;;;;;;;;;;;;4.18;100.00;95819.59;30001;982;1877;-56
2024/03/01 01:44:27;;;;;;;;;;;;;;;4.19;100.00;95826.56;30001;982;1882;-56
2024/03/01 01:44:57;;;;;;;;;;;;;;;4.20;100.00;95819.31;30001;983;1876;-56
2024/03/01 01:45:29;;;;;;;;;;;;;;;4.20;100.00;95822.00;30001;983;1881;-56
2024/03/01 01:46:00;;;;;;;;;;;;;;;4.21;100.00;95823.59;30001;983;1876;-56
2024/03/01 01:46:31;;;;;;;;;;;;;;;4.22;100.00;95831.37;30001;983;1868;-56
2024/03/01 01:47:02;;;;;;;;;;;;;;;4.23;100.00;95821.44;30001;983;1868;-54
2024/03/01 01:47:33;;;;;;;;;;;;;;;4.23;100.00;95829.50;30001;983;1881;-56
2024/03/01 01:48:05;;;;;;;;;;;;;;;4.21;100.00;95829.78;30001;983;1877;-56
2024/03/01 01:48:38;;;;;;;;;;;;;;;4.21;100.00;95829.78;30001;983;1881;-56
2024/03/01 01:49:09;;;;;;;;;;;;;;;4.22;100.00;95830.56;30001;983;1779;-67
2024/03/01 01:49:40;;;;;;;;;;;;;;;4.22;100.00;95830.56;30001;983;1881;-56
2024/03/01 01:50:11;;;;;;;;;;;;;;;4.22;100.00;95830.56;30001;982;1877;-56
2024/03/01 01:50:46;;;;;;;;;;;;;;;4.24;100.00;95833.78;30001;982;1882;-56
2024/03/01 01:51:18;;;;;;;;;;;;;;;4.25;100.00;95830.03;30001;982;1877;-55
2024/03/01 01:51:49;;;;;;;;;;;;;;;4.27;100.00;95825.19;30001;982;1869;-56
2024/03/01 01:52:20;;;;;;;;;;;;;;;4.28;100.00;95824.09;30001;983;1868;-56
2024/03/01 01:52:51;;;;;;;;;;;;;;;4.27;100.00;95812.56;30001;983;1881;-57
2024/03/01 01:53:22;;;;;;;;;;;;;;;4.31;100.00;95816.28;30001;971;1897;-56
2024/03/01 01:53:53;;;;;;;;;;;;;;;4.32;100.00;95814.41;30001;983;1881;-57
2024/03/01 01:54:24;;;;;;;;;;;;;;;4.32;100.00;95803.66;30001;983;1877;-56
2024/03/01 01:54:55;;;;;;;;;;;;;;;4.31;100.00;95808.22;30001;983;1881;-56
2024/03/01 01:55:26;;;;;;;;;;;;;;;4.32;100.00;95809.03;30001;983;1778;-56
2024/03/01 01:55:59;;;;;;;;;;;;;;;4.33;100.00;95808.75;30001;983;1881;-56
2024/03/01 01:56:30;;;;;;;;;;;;;;;4.33;100.00;95803.38;30001;983;1877;-55
2024/03/01 01:57:01;;;;;;;;;;;;;;;4.32;100.00;95809.03;30001;983;1868;-56
2024/03/01 01:57:32;;;;;;;;;;;;;;;4.29;100.00;95798.84;30001;982;1868;-56
2024/03/01 01:58:03;;;;;;;;;;;;;;;4.26;100.00;95804.78;30001;982;1881;-56
2024/03/01 01:58:34;;;;;;;;;;;;;;;4.24;100.00;95798.88;30001;982;1877;-56
2024/03/01 01:59:05;;;;;;;;;;;;;;;4.24;100.00;95796.19;30001;982;1882;-56
2024/03/01 01:59:37;;;;;;;;;;;;;;;4.22;100.00;95798.34;30001;982;1877;-57
2024/03/01 02:00:09;;;;;;;;;;;;;;;4.20;100.00;95795.16;30001;983;1881;-56
2024/03/01 02:00:40;;;;;;;;;;;;;;;4.18;100.00;95791.94;30001;983;1876;-56
2024/03/01 02:01:12;;;;;;;;;;;;;;;4.17;100.00;95795.69;30001;983;1881;-55
2024/03/01 02:01:44;;;;;;;;;;;;;;;4.15;100.00;95787.16;30001;983;1877;-55
2024/03/01 02:02:15;;;;;;;;;;;;;;;4.12;100.00;95796.56;30001;983;1868;-56
2024/03/01 02:02:50;;;;;;;;;;;;;;;4.11;100.00;95792.28;30001;983;1868;-56
2024/03/01 02:03:22;;;;;;;;;;;;;;;4.11;100.00;95791.47;30001;983;1881;-56
2024/03/01 02:03:52;;;;;;;;;;;;;;;4.11;100.00;95791.47;30001;983;1877;-55
2024/03/01 02:04:24;;;;;;;;;;;;;;;4.10;100.00;95789.88;30001;982;1881;-56
2024/03/01 02:06:04;;;;;;;;;;;;;;;4.11;100.00;95791.47;89987;930;17000;-56
2024/03/01 02:06:35;;;;;;;;;;;;;;;4.10;100.00;95795.25;30001;982;1868;-55
2024/03/01 02:07:06;;;;;;;;;;;;;;;4.09;100.00;95788.25;30001;984;1868;-55
2024/03/01 02:07:37;;;;;;;;;;;;;;;4.10;100.00;95789.88;30001;982;1881;-56
2024/03/01 02:08:08;;;;;;;;;;;;;;;4.10;100.00;95789.88;30001;982;1876;-56
2024/03/01 02:08:40;;;;;;;;;;;;;;;4.10;100.00;95789.88;30001;983;1879;-55
2024/03/01 02:09:17;;;;;;;;;;;;;;;4.10;100.00;95787.19;30001;983;1875;-69
2024/03/01 02:09:50;;;;;;;;;;;;;;;4.12;100.00;95793.06;30001;983;1880;-55
2024/03/01 02:10:22;;;;;;;;;;;;;;;4.12;100.00;95782.34;30001;983;1866;-56
2024/03/01 02:10:54;;;;;;;;;;;;;;;4.12;100.00;95785.81;30001;983;1875;-56
2024/03/01 02:11:25;;;;;;;;;;;;;;;4.14;100.00;95782.88;30001;983;1880;-56
2024/03/01 02:11:56;;;;;;;;;;;;;;;4.14;100.00;95785.56;30001;983;1884;-55
2024/03/01 02:12:26;;;;;;;;;;;;;;;4.15;100.00;95781.78;30001;983;1880;-55
2024/03/01 02:12:59;;;;;;;;;;;;;;;4.15;100.00;95787.97;30001;983;1884;-56
2024/03/01 02:13:33;;;;;;;;;;;;;;;4.16;100.00;95783.38;30001;982;1880;-55
2024/03/01 02:14:04;;;;;;;;;;;;;;;4.16;100.00;95786.06;30001;982;1884;-56
2024/03/01 02:14:35;;;;;;;;;;;;;;;4.17;100.00;95790.34;30001;982;1880;-56
2024/03/01 02:15:08;;;;;;;;;;;;;;;4.19;100.00;95785.50;30001;982;1885;-56
2024/03/01 02:15:39;;;;;;;;;;;;;;;4.19;100.00;95780.91;30001;982;1867;-56
2024/03/01 02:16:10;;;;;;;;;;;;;;;4.20;100.00;95787.91;30001;983;1875;-55
2024/03/01 02:16:41;;;;;;;;;;;;;;;4.21;100.00;95780.66;30001;983;1880;-55
2024/03/01 02:17:12;;;;;;;;;;;;;;;4.23;100.00;95778.47;30001;983;1884;-56
2024/03/01 02:17:43;;;;;;;;;;;;;;;4.23;100.00;95783.84;30001;983;1795;-56
2024/03/01 02:18:14;;;;;;;;;;;;;;;4.24;100.00;95772.03;30001;983;1884;-55
2024/03/01 02:18:47;;;;;;;;;;;;;;;4.26;100.00;95777.94;30001;983;1880;-55
2024/03/01 02:19:19;;;;;;;;;;;;;;;4.28;100.00;95781.94;30001;983;1884;-56
2024/03/01 02:19:53;;;;;;;;;;;;;;;4.30;100.00;95778.97;30001;983;1880;-56
2024/03/01 02:20:28;;;;;;;;;;;;;;;4.32;100.00;95776.81;30001;982;1884;-55
2024/03/01 02:21:03;;;;;;;;;;;;;;;4.34;100.00;95777.34;30001;982;1867;-55
2024/03/01 02:21:36;;;;;;;;;;;;;;;4.36;100.00;95775.19;30001;982;1876;-56
2024/03/01 02:22:16;;;;;;;;;;;;;;;4.37;100.00;95777.59;30001;982;1880;-57
2024/03/01 02:22:49;;;;;;;;;;;;;;;4.39;100.00;95777.31;30001;974;1901;-56
2024/03/01 02:23:24;;;;;;;;;;;;;;;4.39;100.00;95785.34;30001;982;1880;-55
2024/03/01 02:23:55;;;;;;;;;;;;;;;4.37;100.00;95777.59;30001;983;1884;-56
2024/03/01 02:24:27;;;;;;;;;;;;;;;4.38;100.00;95781.06;30001;983;1880;-56
2024/03/01 02:24:58;;;;;;;;;;;;;;;4.38;100.00;95786.44;30001;983;1884;-56
2024/03/01 02:25:29;;;;;;;;;;;;;;;4.38;100.00;95786.44;30001;983;1880;-56
2024/03/01 02:26:00;;;;;;;;;;;;;;;4.36;100.00;95772.50;30001;983;1871;-55
2024/03/01 02:26:32;;;;;;;;;;;;;;;4.35;100.00;95776.25;30001;983;1871;-56
2024/03/01 02:27:03;;;;;;;;;;;;;;;4.33;100.00;95779.22;30001;983;1884;-56
2024/03/01 02:27:34;;;;;;;;;;;;;;;4.33;100.00;95762.31;30001;983;1880;-56
2024/03/01 02:28:05;;;;;;;;;;;;;;;4.33;100.00;95770.37;30001;982;1884;-56
2024/03/01 02:28:42;;;;;;;;;;;;;;;4.32;100.00;95772.25;30001;982;1880;-56
2024/03/01 02:29:13;;;;;;;;;;;;;;;4.31;100.00;95764.47;30001;982;1884;-56
2024/03/01 02:29:44;;;;;;;;;;;;;;;4.30;100.00;95768.22;30001;982;1880;-67
2024/03/01 02:30:15;;;;;;;;;;;;;;;4.29;100.00;95763.94;30001;982;1885;-55
2024/03/01 02:30:46;;;;;;;;;;;;;;;4.28;100.00;95767.72;30001;982;1880;-56
2024/03/01 02:31:17;;;;;;;;;;;;;;;4.27;100.00;95763.41;30001;983;1871;-55
2024/03/01 02:51:34;;;;;;;;;;;;;;;4.36;100.00;95783.22;30001;986;1853;-56
2024/03/01 02:53:14;;;;;;;;;;;;;;;4.37;100.00;95785.63;89986;930;18000;-56
2024/03/01 02:53:45;;;;;;;;;;;;;;;4.36;100.00;95789.41;30001;982;1868;-56
2024/03/01 02:54:16;;;;;;;;;;;;;;;4.37;100.00;95790.22;30001;982;1868;-55
2024/03/01 02:54:47;;;;;;;;;;;;;;;4.37;100.00;95790.22;30001;982;1881;-56
2024/03/01 02:55:21;;;;;;;;;;;;;;;4.38;100.00;95791.81;30001;982;1875;-67
2024/03/01 02:55:52;;;;;;;;;;;;;;;4.37;100.00;95790.22;30001;983;1879;-56
2024/03/01 02:56:23;;;;;;;;;;;;;;;4.37;100.00;95784.84;30001;983;1875;-56
2024/03/01 02:56:55;;;;;;;;;;;;;;;4.38;100.00;95784.56;30001;983;1879;-56
2024/03/01 02:57:25;;;;;;;;;;;;;;;4.39;100.00;95782.69;30001;983;1861;-56
2024/03/01 02:57:57;;;;;;;;;;;;;;;4.40;100.00;95783.47;30001;983;1870;-56
2024/03/01 02:58:28;;;;;;;;;;;;;;;4.40;100.00;95786.16;30001;983;1875;-55
2024/03/01 02:58:59;;;;;;;;;;;;;;;4.38;100.00;95784.56;30001;983;1879;-55
2024/03/01 02:59:30;;;;;;;;;;;;;;;4.38;100.00;95786.44;30001;983;1875;-55
2024/03/01 03:00:05;;;;;;;;;;;;;;;4.39;100.00;95782.69;30001;983;1879;-56
2024/03/01 03:00:36;;;;;;;;;;;;;;;4.39;100.00;95782.69;30001;982;1875;-56
2024/03/01 03:01:07;;;;;;;;;;;;;;;4.39;100.00;95771.94;30001;982;1880;-55
2024/03/01 03:01:39;;;;;;;;;;;;;;;4.40;100.00;95776.22;30001;982;1875;-57
2024/03/01 03:02:09;;;;;;;;;;;;;;;4.40;100.00;95773.53;30001;982;1879;-56
2024/03/01 03:02:41;;;;;;;;;;;;;;;4.41;100.00;95775.12;30001;982;1862;-56
2024/03/01 03:19:05;;;;;;;;;;;;;;;4.64;100.00;95771.72;30001;985;1857;-56
2024/03/01 03:20:43;;;;;;;;;;;;;;;4.66;100.00;95780.28;89991;930;13000;-55
2024/03/01 03:21:17;;;;;;;;;;;;;;;4.65;100.00;95781.38;30001;982;1868;-66
2024/03/01 03:21:48;;;;;;;;;;;;;;;4.63;100.00;95772.78;30001;982;1852;-57
2024/03/01 03:22:24;;;;;;;;;;;;;;;4.64;100.00;95781.66;30001;982;1880;-56
2024/03/01 03:22:56;;;;;;;;;;;;;;;4.64;100.00;95784.34;30001;982;1876;-56
2024/03/01 03:23:27;;;;;;;;;;;;;;;4.62;100.00;95781.13;30001;982;1880;-68
2024/03/01 03:23:59;;;;;;;;;;;;;;;4.62;100.00;95776.56;30001;983;1875;-56
2024/03/01 03:24:30;;;;;;;;;;;;;;;4.63;100.00;95778.16;30001;983;1879;-56
2024/03/01 03:25:01;;;;;;;;;;;;;;;4.62;100.00;95781.94;30001;983;1862;-56
2024/03/01 03:25:32;;;;;;;;;;;;;;;4.60;100.00;95778.72;30001;983;1871;-56
2024/03/01 03:26:04;;;;;;;;;;;;;;;4.59;100.00;95770.94;30001;983;1875;-56
2024/03/01 03:26:35;;;;;;;;;;;;;;;4.59;100.00;95771.75;30001;983;1880;-56
2024/03/01 03:27:06;;;;;;;;;;;;;;;4.59;100.00;95769.06;30001;983;1782;-56
2024/03/01 03:27:36;;;;;;;;;;;;;;;4.60;100.00;95778.72;30001;983;1880;-56